Alvin, Illinois
Current Conditions -  °F | °C
As of 8:15 AM on Thursday 29 Jan 2015 (Local Time) from KDNV Reporting Station
Overcast Overcast  
Wind Chill: -3°   Ceiling: 1500
Heat Index:   Visibility: 10mi
Dew Point:   Wind: 20mph
Humidity: 86%   Direction: 280°W
Pressure: 29.76"   Gusts: 28mph
Location:  40.31°N, 87.61°W
Report Text: KDNV 291415Z AUTO 28017G24KT 10SM OVC015 03/01 A2976 RMK AO2 T00310010
Loading
Personal Weather Stations






























Interactive Weather Map New forecast layout! Learn more

10-Day Weather Forecast

Advertisements
Track Severe Weather on mobile